Time;durP1;ratioP1;P1;durP2;ratioP2;P2;SDS_P1;SDS_P2;PMS_P1;PMS_P2;Temp;Humidity;BMP_temperature;BMP_pressure;BME280_temperature;BME280_humidity;BME280_pressure;Samples;Min_cycle;Max_cycle;Signal;HPM_P1;HPM_P2
2020/12/20 00:00:29;;;;;;;14.40;4.07;;;11.70;99.90;;;;;;5054428;28;20221;-92
2020/12/20 00:02:57;;;;;;;13.37;3.97;;;11.70;99.90;;;;;;5042856;28;20217;-92
2020/12/20 00:05:25;;;;;;;12.47;3.50;;;11.70;99.90;;;;;;5043460;28;20612;-91
2020/12/20 00:07:54;;;;;;;12.30;3.77;;;11.70;99.90;;;;;;5042298;28;20175;-90
2020/12/20 00:10:23;;;;;;;19.53;4.00;;;11.60;99.90;;;;;;5075140;28;20178;-91
2020/12/20 00:12:49;;;;;;;14.47;3.60;;;11.50;99.90;;;;;;5047307;28;20215;-93
2020/12/20 00:15:15;;;;;;;11.53;3.70;;;11.40;99.90;;;;;;5038856;28;20248;-92
2020/12/20 00:17:51;;;;;;;14.57;4.03;;;11.40;99.90;;;;;;5058516;28;20262;-90
2020/12/20 00:20:18;;;;;;;13.53;3.93;;;11.40;99.90;;;;;;5089341;28;20260;-90
2020/12/20 00:22:45;;;;;;;13.00;3.87;;;11.40;99.90;;;;;;5040633;28;20753;-90
2020/12/20 00:25:11;;;;;;;13.70;3.90;;;11.40;99.90;;;;;;5049376;28;20251;-91
2020/12/20 00:27:37;;;;;;;14.00;3.87;;;11.40;99.90;;;;;;5057042;28;20641;-90
2020/12/20 00:30:07;;;;;;;10.67;3.77;;;11.40;99.90;;;;;;5038279;28;20177;-91
2020/12/20 00:32:33;;;;;;;12.57;3.63;;;11.50;99.90;;;;;;5071813;28;20191;-90
2020/12/20 00:34:58;;;;;;;13.53;4.00;;;11.50;99.90;;;;;;5056108;28;20245;-91
2020/12/20 00:37:24;;;;;;;12.13;3.70;;;11.50;99.90;;;;;;5057619;28;20188;-91
2020/12/20 00:39:51;;;;;;;11.20;3.67;;;11.50;99.90;;;;;;5056876;28;20579;-90
2020/12/20 00:42:17;;;;;;;13.50;4.07;;;11.50;99.90;;;;;;5075695;28;20269;-91
2020/12/20 00:44:43;;;;;;;18.43;4.37;;;11.60;99.90;;;;;;5040903;28;20328;-90
2020/12/20 00:47:08;;;;;;;15.87;4.30;;;11.50;99.90;;;;;;5039993;28;20196;-91
2020/12/20 00:49:34;;;;;;;13.70;4.03;;;11.50;99.90;;;;;;5073616;28;20226;-90
2020/12/20 00:52:04;;;;;;;12.23;4.13;;;11.50;99.90;;;;;;5073494;28;20192;-92
2020/12/20 00:54:31;;;;;;;15.47;4.50;;;11.60;99.90;;;;;;5046337;28;20174;-90
2020/12/20 00:57:00;;;;;;;13.17;4.40;;;11.60;99.90;;;;;;5041951;28;20190;-92
2020/12/20 00:59:27;;;;;;;14.93;5.03;;;11.60;99.90;;;;;;5057943;28;20235;-91
2020/12/20 01:01:57;;;;;;;10.93;3.67;;;11.60;99.90;;;;;;5058725;28;20213;-90
2020/12/20 01:04:23;;;;;;;19.57;4.47;;;11.60;99.90;;;;;;5072864;28;20199;-90
2020/12/20 01:06:55;;;;;;;13.77;3.60;;;11.60;99.90;;;;;;5041205;28;20265;-90
2020/12/20 01:09:23;;;;;;;15.67;4.07;;;11.50;99.90;;;;;;5040442;28;20201;-90
2020/12/20 01:11:49;;;;;;;16.80;4.17;;;11.60;99.90;;;;;;5041541;28;20555;-89
2020/12/20 01:14:16;;;;;;;15.60;4.43;;;11.60;99.90;;;;;;5040706;28;20214;-91
2020/12/20 01:16:58;;;;;;;12.63;3.70;;;11.50;99.90;;;;;;5056655;28;20176;-90
2020/12/20 01:19:40;;;;;;;16.23;4.10;;;11.50;99.90;;;;;;5068459;28;20246;-92
2020/12/20 01:22:06;;;;;;;12.53;4.00;;;11.50;99.90;;;;;;5056910;28;20213;-90
2020/12/20 01:24:32;;;;;;;14.00;4.00;;;11.60;99.90;;;;;;5036076;28;20185;-90
2020/12/20 01:27:01;;;;;;;13.07;3.70;;;11.50;99.90;;;;;;5038833;28;20217;-91
2020/12/20 01:29:27;;;;;;;16.20;3.70;;;11.50;99.90;;;;;;5042012;28;20216;-90
2020/12/20 01:31:53;;;;;;;13.53;4.00;;;11.50;99.90;;;;;;5042426;28;20277;-90
2020/12/20 01:34:24;;;;;;;13.23;3.97;;;11.60;99.90;;;;;;5057706;28;21219;-90
2020/12/20 01:36:50;;;;;;;16.27;4.03;;;11.60;99.90;;;;;;5072658;28;20227;-90
2020/12/20 01:39:17;;;;;;;15.97;4.03;;;11.60;99.90;;;;;;5039985;28;20700;-91
2020/12/20 01:41:44;;;;;;;14.37;3.57;;;11.50;99.90;;;;;;5052282;28;20174;-90
2020/12/20 01:44:15;;;;;;;17.67;4.30;;;11.50;99.90;;;;;;5084379;28;20183;-91
2020/12/20 01:46:46;;;;;;;16.13;3.93;;;11.50;99.90;;;;;;5041842;28;20616;-90
2020/12/20 01:49:17;;;;;;;17.40;4.07;;;11.50;99.90;;;;;;5037900;28;20178;-90
2020/12/20 01:51:43;;;;;;;14.03;3.80;;;11.60;99.90;;;;;;5056608;28;20190;-90
2020/12/20 01:54:12;;;;;;;12.57;3.93;;;11.60;99.90;;;;;;5042970;28;20181;-90
2020/12/20 01:56:48;;;;;;;15.90;3.93;;;11.40;99.90;;;;;;5044779;28;20184;-90
2020/12/20 01:59:21;;;;;;;16.60;4.23;;;11.50;99.90;;;;;;5058364;28;20176;-91
2020/12/20 02:01:58;;;;;;;11.90;4.43;;;11.40;99.90;;;;;;5039965;28;20202;-90
2020/12/20 02:04:37;;;;;;;18.13;4.20;;;11.50;99.90;;;;;;5042756;28;20225;-90
2020/12/20 02:07:04;;;;;;;16.10;3.73;;;11.50;99.90;;;;;;5054169;28;20179;-90
2020/12/20 02:09:30;;;;;;;16.10;4.17;;;11.60;99.90;;;;;;5073266;28;20199;-90
2020/12/20 02:12:07;;;;;;;15.73;3.97;;;11.50;99.90;;;;;;5045737;28;20255;-91
2020/12/20 02:14:39;;;;;;;15.17;4.00;;;11.50;99.90;;;;;;5078348;28;20180;-89
2020/12/20 02:17:07;;;;;;;14.33;4.00;;;11.40;99.90;;;;;;5058433;28;20695;-91
2020/12/20 02:19:39;;;;;;;14.80;4.13;;;11.30;99.90;;;;;;5056361;28;20184;-91
2020/12/20 02:22:19;;;;;;;19.60;4.63;;;11.30;99.90;;;;;;5042402;28;20710;-91
2020/12/20 02:24:47;;;;;;;18.23;4.63;;;11.40;99.90;;;;;;5039461;28;20261;-91
2020/12/20 02:27:32;;;;;;;19.77;4.27;;;11.40;99.90;;;;;;5073946;28;20217;-91
2020/12/20 02:29:58;;;;;;;15.20;4.33;;;11.40;99.90;;;;;;5086885;28;20264;-91
2020/12/20 02:32:35;;;;;;;16.40;4.20;;;11.40;99.90;;;;;;5038288;28;20185;-91
2020/12/20 02:35:01;;;;;;;15.83;4.37;;;11.40;99.90;;;;;;5042441;28;20209;-91
2020/12/20 02:37:27;;;;;;;23.07;5.00;;;11.50;99.90;;;;;;5070703;28;20220;-91
2020/12/20 02:40:00;;;;;;;16.13;3.97;;;11.50;99.90;;;;;;5040873;28;20205;-91
2020/12/20 02:42:29;;;;;;;17.37;4.20;;;11.50;99.90;;;;;;5041396;28;20346;-91
2020/12/20 02:44:56;;;;;;;15.93;4.37;;;11.40;99.90;;;;;;5074949;28;20235;-90
2020/12/20 02:47:23;;;;;;;14.57;3.90;;;11.40;99.90;;;;;;5051165;28;20584;-88
2020/12/20 02:49:49;;;;;;;13.80;3.90;;;11.20;99.90;;;;;;5084026;28;20182;-91
2020/12/20 02:52:34;;;;;;;18.17;4.23;;;11.20;99.90;;;;;;5056824;28;20177;-91
2020/12/20 02:54:59;;;;;;;16.37;4.20;;;11.30;99.90;;;;;;5041098;28;20189;-90
2020/12/20 02:57:35;;;;;;;19.27;4.50;;;11.30;99.90;;;;;;5059182;28;20218;-91
2020/12/20 03:00:27;;;;;;;17.30;3.87;;;11.30;99.90;;;;;;5062677;28;20190;-90
2020/12/20 03:02:55;;;;;;;17.90;4.20;;;11.30;99.90;;;;;;5044150;28;20211;-90
2020/12/20 03:05:21;;;;;;;23.53;4.63;;;11.30;99.90;;;;;;5053089;28;20588;-91
2020/12/20 03:07:50;;;;;;;20.50;4.77;;;11.30;99.90;;;;;;5075154;28;20208;-91
2020/12/20 03:10:17;;;;;;;20.33;4.80;;;11.40;99.90;;;;;;5040989;28;20173;-91
2020/12/20 03:12:45;;;;;;;18.97;4.70;;;11.40;99.90;;;;;;5059067;28;20624;-91
2020/12/20 03:15:12;;;;;;;20.57;4.40;;;11.30;99.90;;;;;;5072921;28;20186;-91
2020/12/20 03:17:38;;;;;;;20.30;4.20;;;11.30;99.90;;;;;;5037231;28;20539;-91
2020/12/20 03:20:06;;;;;;;20.97;4.47;;;11.30;99.90;;;;;;5089149;28;20232;-90
2020/12/20 03:22:33;;;;;;;20.17;4.03;;;11.30;99.90;;;;;;5070408;28;20205;-90
2020/12/20 03:25:31;;;;;;;15.27;3.87;;;11.30;99.90;;;;;;5032323;28;20248;-91
2020/12/20 03:28:16;;;;;;;19.50;4.40;;;11.40;99.90;;;;;;5044677;28;20225;-90
2020/12/20 03:31:02;;;;;;;20.77;4.37;;;11.40;99.90;;;;;;5073778;28;20264;-91
2020/12/20 03:33:45;;;;;;;20.67;3.83;;;11.40;99.90;;;;;;5044715;28;20197;-90
2020/12/20 03:36:27;;;;;;;19.77;4.33;;;11.30;99.90;;;;;;5057475;28;20242;-89
2020/12/20 03:38:53;;;;;;;16.53;4.07;;;11.30;99.90;;;;;;5042598;28;20190;-91
2020/12/20 03:41:19;;;;;;;18.23;4.50;;;11.40;99.90;;;;;;5042307;28;20588;-91
2020/12/20 03:43:48;;;;;;;20.50;3.83;;;11.30;99.90;;;;;;5074790;28;20206;-90
2020/12/20 03:46:13;;;;;;;18.10;3.73;;;11.40;99.90;;;;;;5042606;28;20635;-90
2020/12/20 03:48:45;;;;;;;14.50;4.17;;;11.40;99.90;;;;;;5055630;28;20182;-91
2020/12/20 03:51:11;;;;;;;22.47;4.47;;;11.50;99.90;;;;;;5061279;28;20544;-91
2020/12/20 03:53:42;;;;;;;23.47;4.17;;;11.50;99.90;;;;;;5043286;28;20213;-90
2020/12/20 03:56:10;;;;;;;23.57;4.60;;;11.50;99.90;;;;;;5074692;28;20182;-90
2020/12/20 03:58:44;;;;;;;22.60;4.47;;;11.50;99.90;;;;;;5059075;28;20186;-91
2020/12/20 04:01:10;;;;;;;12.50;3.97;;;11.50;99.90;;;;;;5044316;28;20177;-89
2020/12/20 04:03:36;;;;;;;23.73;5.20;;;11.50;99.90;;;;;;5044274;28;20246;-90
2020/12/20 04:06:03;;;;;;;21.37;4.73;;;11.50;99.90;;;;;;5072367;28;20174;-90
2020/12/20 04:08:29;;;;;;;22.83;5.00;;;11.50;99.90;;;;;;5042534;28;20207;-91
2020/12/20 04:11:10;;;;;;;22.47;4.77;;;11.50;99.90;;;;;;5043593;28;20599;-90
2020/12/20 04:13:37;;;;;;;26.70;5.43;;;11.30;99.90;;;;;;5043177;28;20268;-90
2020/12/20 04:16:24;;;;;;;20.30;4.80;;;11.40;99.90;;;;;;5040799;28;20675;-90
2020/12/20 04:18:50;;;;;;;20.17;4.80;;;11.30;99.90;;;;;;5057310;28;20201;-90
2020/12/20 04:21:16;;;;;;;20.90;5.50;;;11.30;99.90;;;;;;5072471;28;20202;-91
2020/12/20 04:23:42;;;;;;;25.77;5.40;;;11.20;99.90;;;;;;5075770;28;20204;-91
2020/12/20 04:26:15;;;;;;;18.37;4.80;;;11.30;99.90;;;;;;5037666;28;20215;-91
2020/12/20 04:29:07;;;;;;;19.13;5.03;;;11.40;99.90;;;;;;5060138;28;20185;-91
2020/12/20 04:31:38;;;;;;;23.77;5.00;;;11.40;99.90;;;;;;5043061;28;20204;-89
2020/12/20 04:34:04;;;;;;;17.93;5.27;;;11.40;99.90;;;;;;5036371;28;20184;-89
2020/12/20 04:36:30;;;;;;;23.50;4.63;;;11.50;99.90;;;;;;5035119;28;20203;-90
2020/12/20 04:39:04;;;;;;;20.17;5.30;;;11.40;99.90;;;;;;5041418;28;20181;-90
2020/12/20 04:41:31;;;;;;;22.73;4.93;;;11.40;99.90;;;;;;5042534;28;20648;-89
2020/12/20 04:44:05;;;;;;;18.00;4.83;;;11.40;99.90;;;;;;5059728;28;20206;-92
2020/12/20 04:46:34;;;;;;;15.87;4.50;;;11.30;99.90;;;;;;5043752;28;20175;-90
2020/12/20 04:49:32;;;;;;;21.33;5.00;;;11.40;99.90;;;;;;5067504;28;20243;-92
2020/12/20 04:52:03;;;;;;;25.97;4.70;;;11.40;99.90;;;;;;5042388;28;20189;-91
2020/12/20 04:54:34;;;;;;;18.97;4.53;;;11.30;99.90;;;;;;5037598;28;20217;-91
2020/12/20 04:57:04;;;;;;;18.83;4.23;;;11.30;99.90;;;;;;5043178;28;20185;-91
2020/12/20 04:59:36;;;;;;;21.27;4.90;;;11.20;99.90;;;;;;5076269;28;20182;-91
2020/12/20 05:02:06;;;;;;;20.20;4.53;;;11.20;99.90;;;;;;5041183;28;20347;-91
2020/12/20 05:04:35;;;;;;;18.03;4.60;;;11.20;99.90;;;;;;5057058;28;20198;-92
2020/12/20 05:07:05;;;;;;;21.97;4.10;;;11.20;99.90;;;;;;5041888;28;20258;-90
2020/12/20 05:09:47;;;;;;;20.37;4.30;;;11.10;99.90;;;;;;5057368;28;20194;-91
2020/12/20 05:12:29;;;;;;;24.37;4.30;;;11.20;99.90;;;;;;5052784;28;20661;-90
2020/12/20 05:15:00;;;;;;;20.37;4.90;;;11.20;99.90;;;;;;5045252;28;20693;-91
2020/12/20 05:17:30;;;;;;;19.13;4.20;;;11.10;99.90;;;;;;5072423;28;20533;-90
2020/12/20 05:20:34;;;;;;;20.60;4.37;;;11.10;99.90;;;;;;5041380;28;20727;-91
2020/12/20 05:23:01;;;;;;;23.83;4.70;;;11.00;99.90;;;;;;5072988;28;20216;-90
2020/12/20 05:25:31;;;;;;;25.10;4.77;;;10.90;99.90;;;;;;5072584;28;20181;-90
2020/12/20 05:28:21;;;;;;;18.97;4.80;;;10.80;99.90;;;;;;5040967;28;20312;-90
2020/12/20 05:30:54;;;;;;;20.77;4.10;;;10.80;99.90;;;;;;5073787;28;20185;-90
2020/12/20 05:33:33;;;;;;;18.30;4.17;;;10.80;99.90;;;;;;5052935;28;20211;-90
2020/12/20 05:36:08;;;;;;;21.73;4.60;;;10.80;99.90;;;;;;5045136;28;20185;-91
2020/12/20 05:38:37;;;;;;;18.60;4.40;;;10.70;99.90;;;;;;5041191;28;20187;-91
2020/12/20 05:41:04;;;;;;;19.23;4.43;;;10.80;99.90;;;;;;5043409;28;20211;-91
2020/12/20 05:43:31;;;;;;;20.70;4.50;;;10.80;99.90;;;;;;5042069;28;20703;-91
2020/12/20 05:45:59;;;;;;;18.67;4.17;;;10.80;99.90;;;;;;5056575;28;20626;-90
2020/12/20 05:48:42;;;;;;;22.33;3.80;;;10.80;99.90;;;;;;5070556;28;20286;-90
2020/12/20 05:51:11;;;;;;;22.10;4.33;;;10.90;99.90;;;;;;5038518;28;20251;-91
2020/12/20 05:53:39;;;;;;;22.30;4.17;;;10.80;99.90;;;;;;5057277;28;20197;-91
2020/12/20 05:56:05;;;;;;;24.07;4.33;;;10.80;99.90;;;;;;5040930;28;20192;-90
2020/12/20 05:58:32;;;;;;;25.10;4.60;;;10.70;99.90;;;;;;5053957;28;20276;-90
2020/12/20 06:00:59;;;;;;;26.83;4.80;;;10.70;99.90;;;;;;5039320;28;20188;-90
2020/12/20 06:03:25;;;;;;;22.27;4.73;;;10.70;99.90;;;;;;5032552;28;20792;-89
2020/12/20 06:05:51;;;;;;;19.97;4.60;;;10.70;99.90;;;;;;5071762;28;20187;-90
2020/12/20 06:08:19;;;;;;;18.80;4.50;;;10.80;99.90;;;;;;5038230;28;20196;-88
2020/12/20 06:10:49;;;;;;;24.03;4.90;;;10.70;99.90;;;;;;5056524;28;20181;-89
2020/12/20 06:13:23;;;;;;;22.07;4.77;;;10.70;99.90;;;;;;5069255;28;20223;-89
2020/12/20 06:15:56;;;;;;;24.20;4.30;;;10.60;99.90;;;;;;5037349;28;20185;-89
2020/12/20 06:18:27;;;;;;;20.30;4.47;;;10.60;99.90;;;;;;5055434;28;20657;-89
2020/12/20 06:21:01;;;;;;;26.10;4.73;;;10.60;99.90;;;;;;5039878;28;20469;-88
2020/12/20 06:23:32;;;;;;;28.93;4.23;;;10.60;99.90;;;;;;5052684;28;20207;-89
2020/12/20 06:25:59;;;;;;;19.13;4.20;;;10.60;99.90;;;;;;5071603;28;20219;-90
2020/12/20 06:28:31;;;;;;;20.47;3.93;;;10.60;99.90;;;;;;5043221;28;20734;-90
2020/12/20 06:30:58;;;;;;;18.63;3.87;;;10.60;99.90;;;;;;5036721;28;20203;-90
2020/12/20 06:33:36;;;;;;;19.57;4.03;;;10.60;99.90;;;;;;5072236;28;20284;-90
2020/12/20 06:36:08;;;;;;;19.53;4.40;;;10.60;99.90;;;;;;5037456;28;20234;-91
2020/12/20 06:38:33;;;;;;;22.37;3.97;;;10.60;99.90;;;;;;5088100;28;20202;-91
2020/12/20 06:40:59;;;;;;;21.70;4.17;;;10.60;99.90;;;;;;5039862;28;20643;-91
2020/12/20 06:43:33;;;;;;;22.03;4.30;;;10.70;99.90;;;;;;5056446;28;20219;-92
2020/12/20 06:45:59;;;;;;;23.67;4.03;;;10.60;99.90;;;;;;5071540;28;20183;-91
2020/12/20 06:48:35;;;;;;;15.60;3.90;;;10.60;99.90;;;;;;5040754;28;20195;-91
2020/12/20 06:51:03;;;;;;;18.43;4.03;;;10.60;99.90;;;;;;5054500;28;20245;-91
2020/12/20 06:53:52;;;;;;;23.80;4.60;;;10.60;99.90;;;;;;5040497;28;20179;-91
2020/12/20 06:56:22;;;;;;;23.73;4.50;;;10.60;99.90;;;;;;5038112;28;20187;-90
2020/12/20 06:58:50;;;;;;;27.47;4.53;;;10.50;99.90;;;;;;5075080;28;20188;-91
2020/12/20 07:01:35;;;;;;;21.03;4.00;;;10.50;99.90;;;;;;5055523;28;20780;-90
2020/12/20 07:04:02;;;;;;;28.17;4.33;;;10.50;99.90;;;;;;5036436;28;20213;-90
2020/12/20 07:06:27;;;;;;;24.20;4.57;;;10.50;99.90;;;;;;5040605;28;20186;-90
2020/12/20 07:09:05;;;;;;;25.97;4.03;;;10.50;99.90;;;;;;5074102;28;20184;-88
2020/12/20 07:11:31;;;;;;;29.67;4.50;;;10.60;99.90;;;;;;5058741;28;20181;-90
2020/12/20 07:13:57;;;;;;;29.53;4.67;;;10.60;99.90;;;;;;5038348;28;20197;-91
2020/12/20 07:16:39;;;;;;;27.93;4.80;;;10.50;99.90;;;;;;5073604;28;20669;-89
2020/12/20 07:19:09;;;;;;;28.63;4.77;;;10.50;99.90;;;;;;5053530;28;20202;-90
2020/12/20 07:21:41;;;;;;;23.57;4.60;;;10.60;99.90;;;;;;5071747;28;20185;-91
2020/12/20 07:24:17;;;;;;;27.87;5.10;;;10.60;99.90;;;;;;5077653;28;20601;-91
2020/12/20 07:26:44;;;;;;;21.40;4.10;;;10.60;99.90;;;;;;5073163;28;20232;-92
2020/12/20 07:29:10;;;;;;;23.67;4.50;;;10.60;99.90;;;;;;5057356;28;20214;-90
2020/12/20 07:31:36;;;;;;;22.97;4.53;;;10.70;99.90;;;;;;5058119;28;20176;-90
2020/12/20 07:34:03;;;;;;;22.00;4.30;;;10.70;99.90;;;;;;5040056;28;20189;-91
2020/12/20 07:36:29;;;;;;;23.17;5.30;;;10.70;99.90;;;;;;5038375;28;20185;-91
2020/12/20 07:38:55;;;;;;;24.30;4.90;;;10.60;99.90;;;;;;5075052;28;20648;-91
2020/12/20 07:41:23;;;;;;;26.00;5.27;;;10.60;99.90;;;;;;5078222;28;20663;-90
2020/12/20 07:43:50;;;;;;;33.90;5.60;;;10.50;99.90;;;;;;5074537;28;20211;-91
2020/12/20 07:46:16;;;;;;;19.63;5.70;;;10.50;99.90;;;;;;5041874;28;20646;-90
2020/12/20 07:48:43;;;;;;;24.57;5.50;;;10.50;99.90;;;;;;5055176;28;20288;-91
2020/12/20 07:51:15;;;;;;;24.63;5.07;;;10.50;99.90;;;;;;5054337;28;20186;-91
2020/12/20 07:53:50;;;;;;;22.67;4.53;;;10.60;99.90;;;;;;5043296;28;20187;-91
2020/12/20 07:56:30;;;;;;;25.70;5.40;;;10.50;99.90;;;;;;5070154;28;20238;-90
2020/12/20 07:59:03;;;;;;;23.27;4.80;;;10.60;99.90;;;;;;5056587;28;20206;-90
2020/12/20 08:01:29;;;;;;;24.13;4.73;;;10.50;99.90;;;;;;5046499;28;20267;-88
2020/12/20 08:04:10;;;;;;;31.80;4.90;;;10.60;99.90;;;;;;5058539;28;20249;-91
2020/12/20 08:06:39;;;;;;;22.83;4.97;;;10.60;99.90;;;;;;5042336;28;20595;-90
2020/12/20 08:09:22;;;;;;;27.53;4.83;;;10.60;99.90;;;;;;5041758;28;20242;-91
2020/12/20 08:11:49;;;;;;;24.67;4.47;;;10.50;99.90;;;;;;5075379;28;20186;-90
2020/12/20 08:14:16;;;;;;;27.80;5.20;;;10.60;99.90;;;;;;5056854;28;20199;-91
2020/12/20 08:16:43;;;;;;;25.53;5.03;;;10.70;99.90;;;;;;5057240;28;20271;-90
2020/12/20 08:19:31;;;;;;;23.07;4.70;;;10.60;99.90;;;;;;5042303;28;20180;-91
2020/12/20 08:22:02;;;;;;;24.80;4.57;;;10.70;99.90;;;;;;5037871;28;20246;-90
2020/12/20 08:24:32;;;;;;;27.20;4.50;;;10.70;99.90;;;;;;5057171;28;20189;-90
2020/12/20 08:27:10;;;;;;;22.80;4.50;;;10.80;99.90;;;;;;5038778;28;20282;-91
2020/12/20 08:29:36;;;;;;;26.20;4.40;;;10.90;99.90;;;;;;5073499;28;20219;-90
2020/12/20 08:32:13;;;;;;;25.23;4.40;;;11.00;99.90;;;;;;5043685;28;20180;-91
2020/12/20 08:34:42;;;;;;;20.33;3.63;;;11.00;99.90;;;;;;5040862;28;20259;-90
2020/12/20 08:37:10;;;;;;;19.63;4.10;;;11.10;99.90;;;;;;5075225;28;20209;-91
2020/12/20 08:39:36;;;;;;;23.30;4.67;;;11.10;99.90;;;;;;5059150;28;20216;-92
2020/12/20 08:42:07;;;;;;;20.87;4.40;;;11.20;99.90;;;;;;5039675;28;20187;-91
2020/12/20 08:44:33;;;;;;;23.53;4.50;;;11.20;99.90;;;;;;5042726;28;20187;-93
2020/12/20 08:47:08;;;;;;;27.37;4.87;;;11.30;99.90;;;;;;5075129;28;20184;-91
2020/12/20 08:49:33;;;;;;;24.47;4.73;;;11.40;99.90;;;;;;5071145;22;20272;-77
2020/12/20 08:52:08;;;;;;;17.80;4.03;;;11.40;99.90;;;;;;5012152;28;20625;-78
2020/12/20 08:54:34;;;;;;;21.50;4.57;;;11.40;99.90;;;;;;5015187;28;20182;-78
2020/12/20 08:57:04;;;;;;;21.80;3.77;;;11.30;99.90;;;;;;5031219;28;20206;-81
2020/12/20 08:59:35;;;;;;;20.90;4.50;;;11.30;99.90;;;;;;5046611;28;20200;-80
2020/12/20 09:02:03;;;;;;;29.50;4.20;;;11.30;99.90;;;;;;5047578;28;20290;-84
2020/12/20 09:04:31;;;;;;;21.73;4.13;;;11.20;99.90;;;;;;5030247;28;20587;-81
2020/12/20 09:07:02;;;;;;;20.17;4.23;;;11.20;99.90;;;;;;5039518;28;20276;-80
2020/12/20 09:09:28;;;;;;;23.00;4.50;;;11.30;99.90;;;;;;5030813;28;20191;-80
2020/12/20 09:12:08;;;;;;;23.43;3.80;;;11.30;99.90;;;;;;5028914;28;20187;-83
2020/12/20 09:14:33;;;;;;;26.10;4.17;;;11.20;99.90;;;;;;5045462;28;20182;-81
2020/12/20 09:16:59;;;;;;;26.57;4.20;;;11.20;99.90;;;;;;5014523;28;20194;-80
2020/12/20 09:19:25;;;;;;;23.77;4.23;;;11.20;99.90;;;;;;5027557;28;20262;-80
2020/12/20 09:21:50;;;;;;;21.30;4.13;;;11.20;99.90;;;;;;5027404;28;20293;-80
2020/12/20 09:24:16;;;;;;;22.80;4.53;;;11.30;99.90;;;;;;5043016;28;20215;-81
2020/12/20 09:26:57;;;;;;;24.67;4.43;;;11.30;99.90;;;;;;5029324;28;20256;-80
2020/12/20 09:29:23;;;;;;;24.03;4.40;;;11.30;99.90;;;;;;5030040;28;20191;-81
2020/12/20 09:31:51;;;;;;;23.87;4.20;;;11.40;99.90;;;;;;5033090;28;20542;-81
2020/12/20 09:34:17;;;;;;;26.43;4.67;;;11.40;99.90;;;;;;5031840;28;20174;-80
2020/12/20 09:36:42;;;;;;;22.07;4.13;;;11.40;99.90;;;;;;5032332;28;20190;-81
2020/12/20 09:39:08;;;;;;;24.30;4.73;;;11.40;99.90;;;;;;5030145;28;20230;-81
2020/12/20 09:41:35;;;;;;;22.40;4.50;;;11.50;99.90;;;;;;5032301;28;20198;-81
2020/12/20 09:44:00;;;;;;;25.20;4.87;;;11.50;99.90;;;;;;5032063;28;20579;-80
2020/12/20 09:46:38;;;;;;;25.80;4.73;;;11.60;99.90;;;;;;5032504;28;20249;-81
2020/12/20 09:49:04;;;;;;;23.13;4.57;;;11.70;99.90;;;;;;5030397;28;20617;-81
2020/12/20 09:51:32;;;;;;;23.17;4.10;;;11.70;99.90;;;;;;5046686;28;20197;-81
2020/12/20 09:53:58;;;;;;;24.23;4.03;;;11.90;99.90;;;;;;5031143;28;20232;-81
2020/12/20 09:56:24;;;;;;;18.63;4.40;;;12.20;99.90;;;;;;5032012;28;20249;-81
2020/12/20 09:58:49;;;;;;;21.70;4.37;;;12.30;99.90;;;;;;5026125;28;20207;-80
2020/12/20 10:01:19;;;;;;;22.70;3.93;;;12.30;99.90;;;;;;5030807;28;20298;-81
2020/12/20 10:03:45;;;;;;;19.57;4.00;;;12.50;99.90;;;;;;5027993;28;20215;-81
2020/12/20 10:06:11;;;;;;;24.83;4.27;;;12.60;99.90;;;;;;5025105;28;20684;-81
2020/12/20 10:08:37;;;;;;;23.70;4.03;;;12.70;99.90;;;;;;5031405;28;20578;-81
2020/12/20 10:11:02;;;;;;;18.67;4.47;;;12.80;99.90;;;;;;5014065;28;20210;-81
2020/12/20 10:13:28;;;;;;;22.13;4.00;;;12.80;99.90;;;;;;5030634;28;20175;-81
2020/12/20 10:15:54;;;;;;;23.87;4.23;;;12.70;99.90;;;;;;5027420;28;20185;-81
2020/12/20 10:18:20;;;;;;;19.00;3.93;;;12.60;99.90;;;;;;5026476;28;20187;-81
2020/12/20 10:20:45;;;;;;;20.70;4.27;;;12.60;99.90;;;;;;5030664;28;20198;-81
2020/12/20 10:23:11;;;;;;;18.90;4.13;;;12.70;99.90;;;;;;5044704;28;20665;-81
2020/12/20 10:25:40;;;;;;;24.93;4.50;;;12.90;99.90;;;;;;5013694;28;21595;-81
2020/12/20 10:28:07;;;;;;;23.03;4.53;;;12.90;99.90;;;;;;5032033;28;20247;-81
2020/12/20 10:30:32;;;;;;;20.00;4.67;;;13.20;99.90;;;;;;5044499;28;20177;-81
2020/12/20 10:32:58;;;;;;;22.23;4.50;;;13.20;99.90;;;;;;5025562;28;20739;-81
2020/12/20 10:35:24;;;;;;;21.63;4.53;;;13.20;99.90;;;;;;5032354;28;20272;-81
2020/12/20 10:37:52;;;;;;;22.93;4.80;;;13.40;99.90;;;;;;5041724;28;20584;-81
2020/12/20 10:40:18;;;;;;;23.83;4.63;;;13.30;99.90;;;;;;5036517;28;20715;-81
2020/12/20 10:42:46;;;;;;;24.73;4.73;;;13.30;99.90;;;;;;5031025;28;20714;-81
2020/12/20 10:45:12;;;;;;;21.00;4.83;;;13.10;99.90;;;;;;5030044;28;20201;-81
2020/12/20 10:47:38;;;;;;;19.97;4.47;;;13.10;99.90;;;;;;5031818;28;20181;-81
2020/12/20 10:50:04;;;;;;;21.00;5.07;;;13.20;99.90;;;;;;5033998;28;20241;-81
2020/12/20 10:52:30;;;;;;;26.07;5.37;;;13.10;99.90;;;;;;5024480;28;20189;-82
2020/12/20 10:54:56;;;;;;;21.50;5.43;;;13.10;99.90;;;;;;5040282;28;20193;-81
2020/12/20 10:57:22;;;;;;;25.60;5.30;;;13.00;99.90;;;;;;5014654;28;20242;-82
2020/12/20 10:59:47;;;;;;;26.63;5.77;;;13.00;99.90;;;;;;5027955;28;20223;-81
2020/12/20 11:02:13;;;;;;;23.47;5.10;;;13.20;99.90;;;;;;5028854;28;20265;-83
2020/12/20 11:04:39;;;;;;;23.67;5.73;;;13.20;99.90;;;;;;5030570;28;20184;-82
2020/12/20 11:07:05;;;;;;;24.07;5.60;;;13.30;99.90;;;;;;5029884;28;20295;-81
2020/12/20 11:09:31;;;;;;;24.53;5.17;;;13.30;99.90;;;;;;5027346;28;20231;-82
2020/12/20 11:11:57;;;;;;;20.40;5.13;;;13.30;99.90;;;;;;5024199;28;20191;-82
2020/12/20 11:14:23;;;;;;;22.93;5.10;;;13.00;99.90;;;;;;5032150;28;20188;-82
2020/12/20 11:16:53;;;;;;;19.60;5.13;;;12.80;99.90;;;;;;5040822;28;20177;-81
2020/12/20 11:19:21;;;;;;;22.00;5.17;;;12.80;99.90;;;;;;5030864;28;20586;-82
2020/12/20 11:21:48;;;;;;;22.10;6.10;;;12.80;99.90;;;;;;5041256;28;20188;-82
2020/12/20 11:24:14;;;;;;;21.33;4.13;;;12.70;99.90;;;;;;5048749;28;20199;-81
2020/12/20 11:26:43;;;;;;;19.03;4.30;;;12.70;99.90;;;;;;5032197;28;20671;-82
2020/12/20 11:29:09;;;;;;;20.90;4.53;;;12.70;99.90;;;;;;5033307;28;20191;-80
2020/12/20 11:31:35;;;;;;;23.10;4.60;;;12.70;99.90;;;;;;5033534;28;20181;-82
2020/12/20 11:34:00;;;;;;;21.27;4.40;;;12.70;99.90;;;;;;5030362;28;20202;-80
2020/12/20 11:36:26;;;;;;;21.27;4.53;;;12.80;99.90;;;;;;5042623;28;20200;-80
2020/12/20 11:38:52;;;;;;;18.43;4.23;;;13.00;99.90;;;;;;5015508;28;20263;-80
2020/12/20 11:41:22;;;;;;;22.90;3.90;;;13.10;99.90;;;;;;5015447;28;20196;-81
2020/12/20 11:43:49;;;;;;;25.87;4.23;;;13.30;99.90;;;;;;5030688;28;20255;-81
2020/12/20 11:46:14;;;;;;;20.57;3.63;;;13.40;99.90;;;;;;5030503;28;20189;-81
2020/12/20 11:48:40;;;;;;;21.40;3.87;;;13.40;99.90;;;;;;5032495;28;20191;-81
2020/12/20 11:51:09;;;;;;;20.27;4.03;;;13.40;99.90;;;;;;5031036;28;20187;-80
2020/12/20 11:53:35;;;;;;;17.57;3.57;;;13.30;99.90;;;;;;5032989;28;20201;-81
2020/12/20 11:56:08;;;;;;;17.90;3.60;;;13.30;99.90;;;;;;5034201;28;20595;-82
2020/12/20 11:58:34;;;;;;;19.70;4.20;;;13.30;99.90;;;;;;5028701;28;20262;-80
2020/12/20 12:01:00;;;;;;;20.70;4.40;;;13.20;99.90;;;;;;5028940;28;20201;-81
2020/12/20 12:03:26;;;;;;;23.07;4.33;;;13.20;99.90;;;;;;5031804;28;20210;-80
2020/12/20 12:05:52;;;;;;;19.87;3.80;;;13.10;99.90;;;;;;5034338;28;20204;-81
2020/12/20 12:08:17;;;;;;;21.63;4.13;;;13.00;99.90;;;;;;5050521;28;20205;-81
2020/12/20 12:10:46;;;;;;;21.60;4.20;;;12.90;99.90;;;;;;5018354;28;20687;-80
2020/12/20 12:13:13;;;;;;;20.00;3.80;;;13.00;99.90;;;;;;5031633;28;20185;-81
2020/12/20 12:15:40;;;;;;;15.33;3.73;;;13.10;99.90;;;;;;5028515;28;20652;-81
2020/12/20 12:18:06;;;;;;;19.07;3.20;;;13.00;99.90;;;;;;5028592;28;20208;-81
2020/12/20 12:20:31;;;;;;;18.50;3.30;;;13.00;99.90;;;;;;5033154;28;20180;-81
2020/12/20 12:22:58;;;;;;;20.43;3.37;;;13.20;99.90;;;;;;5031558;28;20201;-81
2020/12/20 12:25:23;;;;;;;25.80;4.23;;;13.10;99.90;;;;;;5029738;28;20181;-81
2020/12/20 12:27:49;;;;;;;19.20;3.50;;;13.10;99.90;;;;;;5032109;28;20200;-81
2020/12/20 12:30:15;;;;;;;16.53;3.47;;;13.10;99.90;;;;;;5029337;28;20599;-80
2020/12/20 12:32:41;;;;;;;26.27;4.17;;;13.30;99.90;;;;;;5032189;28;20651;-81
2020/12/20 12:35:08;;;;;;;15.27;3.20;;;13.40;99.90;;;;;;5031344;28;20221;-81
2020/12/20 12:37:34;;;;;;;20.33;4.37;;;13.50;99.90;;;;;;5031705;28;20188;-81
2020/12/20 12:40:00;;;;;;;22.80;4.87;;;13.60;99.90;;;;;;5028092;28;20205;-81
2020/12/20 12:42:25;;;;;;;18.30;2.90;;;13.70;99.90;;;;;;5031837;28;20677;-81
2020/12/20 12:44:51;;;;;;;22.07;4.10;;;13.40;99.90;;;;;;5040239;28;20230;-81
2020/12/20 12:47:17;;;;;;;24.27;3.50;;;13.30;99.90;;;;;;5028780;28;20194;-80